createdAt,value
2017-05-04T00:00:16.163Z,0
2017-05-04T00:00:56.591Z,0
2017-05-04T00:01:37.042Z,0
2017-05-04T00:02:17.482Z,0
2017-05-04T00:02:57.994Z,0
2017-05-04T00:03:38.422Z,0
2017-05-04T00:04:18.844Z,0
2017-05-04T00:04:59.316Z,0
2017-05-04T00:05:39.769Z,0
2017-05-04T00:06:20.232Z,0
2017-05-04T00:07:00.706Z,0
2017-05-04T00:07:41.135Z,0
2017-05-04T00:08:21.593Z,0
2017-05-04T00:09:02.081Z,0
2017-05-04T00:09:42.540Z,0
2017-05-04T00:10:22.972Z,0
2017-05-04T00:11:03.421Z,0
2017-05-04T00:11:43.840Z,0
2017-05-04T00:12:24.266Z,0
2017-05-04T00:15:02.442Z,0
2017-05-04T00:15:42.923Z,0
2017-05-04T00:16:23.592Z,0
2017-05-04T00:17:04.624Z,0
2017-05-04T00:17:45.119Z,0
2017-05-04T00:20:18.175Z,0
2017-05-04T00:20:58.667Z,0
2017-05-04T00:21:39.150Z,0
2017-05-04T00:22:19.618Z,0
2017-05-04T00:23:00.078Z,0
2017-05-04T00:23:40.535Z,0
2017-05-04T00:24:21.075Z,0
2017-05-04T00:26:54.063Z,0
2017-05-04T00:27:34.884Z,0
2017-05-04T00:28:15.370Z,0
2017-05-04T00:28:55.871Z,0
2017-05-04T00:29:36.368Z,0
2017-05-04T00:30:16.841Z,0
2017-05-04T00:30:57.852Z,0
2017-05-04T00:31:38.355Z,0
2017-05-04T00:32:18.820Z,0
2017-05-04T00:32:59.290Z,0
2017-05-04T00:33:39.786Z,0
2017-05-04T00:34:20.279Z,0
2017-05-04T00:35:00.760Z,0
2017-05-04T00:35:41.247Z,0
2017-05-04T00:36:21.723Z,0
2017-05-04T00:37:02.203Z,0
2017-05-04T00:37:42.705Z,0
2017-05-04T00:38:23.205Z,0
2017-05-04T00:39:03.695Z,0
2017-05-04T00:39:44.183Z,0
2017-05-04T00:40:24.678Z,0
2017-05-04T00:41:05.168Z,0
2017-05-04T00:41:45.696Z,0
2017-05-04T00:42:26.186Z,0
2017-05-04T00:43:06.660Z,0
2017-05-04T00:43:47.167Z,0
2017-05-04T00:44:27.665Z,0
2017-05-04T00:45:08.127Z,0
2017-05-04T00:45:48.604Z,0
2017-05-04T00:46:29.063Z,0
2017-05-04T00:47:09.519Z,0
2017-05-04T00:47:49.972Z,0
2017-05-04T00:48:30.633Z,0
2017-05-04T00:49:11.099Z,0
2017-05-04T00:49:51.610Z,0
2017-05-04T00:50:32.038Z,0
2017-05-04T00:51:12.467Z,0
2017-05-04T00:51:52.891Z,0
2017-05-04T00:52:33.341Z,0
2017-05-04T00:53:14.322Z,0
2017-05-04T00:53:54.767Z,0
2017-05-04T00:54:35.181Z,0
2017-05-04T00:55:15.614Z,0
2017-05-04T00:55:56.053Z,0
2017-05-04T00:56:36.471Z,0
2017-05-04T00:57:16.898Z,0
2017-05-04T00:57:57.348Z,0
2017-05-04T00:58:37.804Z,0
2017-05-04T00:59:18.290Z,0
2017-05-04T00:59:58.744Z,0
2017-05-04T01:00:39.193Z,0
2017-05-04T01:01:19.634Z,0
2017-05-04T01:03:32.338Z,0
2017-05-04T01:04:12.792Z,0
2017-05-04T01:04:53.255Z,0
2017-05-04T01:05:33.711Z,0
2017-05-04T01:06:14.186Z,0
2017-05-04T01:06:55.277Z,0
2017-05-04T01:07:35.765Z,0
2017-05-04T01:08:16.858Z,0
2017-05-04T01:10:54.957Z,0
2017-05-04T01:11:35.425Z,0
2017-05-04T01:12:15.921Z,0
2017-05-04T01:12:56.424Z,0
2017-05-04T01:13:36.909Z,0
2017-05-04T01:14:17.398Z,0
2017-05-04T01:14:57.876Z,0
2017-05-04T01:15:38.363Z,0
2017-05-04T01:16:18.855Z,0
2017-05-04T01:16:59.348Z,0
2017-05-04T01:17:39.858Z,0
2017-05-04T01:18:20.291Z,0
2017-05-04T01:19:00.789Z,0
2017-05-04T01:19:41.235Z,0
2017-05-04T01:20:21.741Z,0
2017-05-04T01:21:02.203Z,0
2017-05-04T01:21:42.681Z,0
2017-05-04T01:22:23.174Z,0
2017-05-04T01:23:03.635Z,0
2017-05-04T01:23:44.142Z,0
2017-05-04T01:24:24.579Z,0
2017-05-04T01:25:05.045Z,0
2017-05-04T01:27:22.840Z,0
2017-05-04T01:28:03.319Z,0
2017-05-04T01:28:43.817Z,0
2017-05-04T01:29:24.433Z,0
2017-05-04T01:30:04.876Z,0
2017-05-04T01:30:45.385Z,0
2017-05-04T01:31:25.877Z,0
2017-05-04T01:32:06.333Z,0
2017-05-04T01:32:46.827Z,0
2017-05-04T01:33:27.308Z,0
2017-05-04T01:34:07.796Z,0
2017-05-04T01:34:48.272Z,0
2017-05-04T01:35:28.783Z,0
2017-05-04T01:36:09.262Z,0
2017-05-04T01:36:49.753Z,0
2017-05-04T01:37:30.245Z,0
2017-05-04T01:38:10.788Z,0
2017-05-04T01:40:48.853Z,0
2017-05-04T01:43:27.276Z,0
2017-05-04T01:44:07.780Z,0
2017-05-04T01:44:48.271Z,0
2017-05-04T01:45:28.750Z,0
2017-05-04T01:46:09.289Z,0
2017-05-04T01:46:49.748Z,0
2017-05-04T01:47:30.232Z,0
2017-05-04T01:48:10.720Z,0
2017-05-04T01:48:51.220Z,0
2017-05-04T01:51:08.995Z,0
2017-05-04T01:51:49.489Z,0
2017-05-04T01:52:29.988Z,0
2017-05-04T01:53:10.508Z,0
2017-05-04T01:53:50.972Z,0
2017-05-04T01:54:31.459Z,0
2017-05-04T01:55:11.944Z,0
2017-05-04T01:55:52.456Z,0
2017-05-04T01:56:32.932Z,0
2017-05-04T01:57:13.409Z,0
2017-05-04T01:57:53.896Z,0
2017-05-04T01:58:34.350Z,0
2017-05-04T01:59:14.848Z,0
2017-05-04T01:59:55.337Z,0
2017-05-04T02:00:35.757Z,0
2017-05-04T02:01:16.255Z,0
2017-05-04T02:01:56.727Z,0
2017-05-04T02:02:37.180Z,0
2017-05-04T02:03:17.645Z,0
2017-05-04T02:03:58.140Z,0
2017-05-04T02:04:38.600Z,0
2017-05-04T02:05:19.073Z,0
2017-05-04T02:05:59.528Z,0
2017-05-04T02:06:39.983Z,0
2017-05-04T02:07:20.436Z,0
2017-05-04T02:08:00.889Z,0
2017-05-04T02:08:41.312Z,0
2017-05-04T02:09:21.794Z,0
2017-05-04T02:10:02.226Z,0
2017-05-04T02:10:42.683Z,0
2017-05-04T02:11:23.183Z,0
2017-05-04T02:12:03.652Z,0
2017-05-04T02:12:44.079Z,0
2017-05-04T02:13:24.478Z,0
2017-05-04T02:14:04.921Z,0
2017-05-04T02:14:45.380Z,0
2017-05-04T02:15:26.766Z,0
2017-05-04T02:16:07.292Z,0
2017-05-04T02:16:47.763Z,0
2017-05-04T02:17:28.200Z,0
2017-05-04T02:18:08.687Z,0
2017-05-04T02:18:49.144Z,0
2017-05-04T02:19:29.631Z,0
2017-05-04T02:20:10.067Z,0
2017-05-04T02:20:50.518Z,0
2017-05-04T02:21:30.969Z,0
2017-05-04T02:22:11.395Z,0
2017-05-04T02:22:51.844Z,0
2017-05-04T02:25:29.988Z,0
2017-05-04T02:26:10.449Z,0
2017-05-04T02:26:50.912Z,0
2017-05-04T02:27:31.387Z,0
2017-05-04T02:28:11.853Z,0
2017-05-04T02:28:52.381Z,0
2017-05-04T02:29:33.538Z,0
2017-05-04T02:30:14.016Z,0
2017-05-04T02:30:54.466Z,0
2017-05-04T02:31:34.988Z,0
2017-05-04T02:32:15.474Z,0
2017-05-04T02:32:55.946Z,0
2017-05-04T02:33:36.429Z,0
2017-05-04T02:34:17.532Z,0
2017-05-04T02:34:58.033Z,0
2017-05-04T02:35:38.529Z,0
2017-05-04T02:36:18.975Z,0
2017-05-04T02:36:59.956Z,0
2017-05-04T02:37:41.332Z,0
2017-05-04T02:38:21.799Z,0
2017-05-04T02:39:03.145Z,0
2017-05-04T02:39:43.620Z,0
2017-05-04T02:40:24.125Z,0
2017-05-04T02:41:04.598Z,0
2017-05-04T02:41:45.129Z,0
2017-05-04T02:42:25.604Z,0
2017-05-04T02:43:06.079Z,0
2017-05-04T02:43:46.581Z,0
2017-05-04T02:44:27.054Z,0
2017-05-04T02:45:07.552Z,0
2017-05-04T02:45:48.015Z,0
2017-05-04T02:46:28.481Z,0
2017-05-04T02:47:08.967Z,0
2017-05-04T02:47:49.401Z,0
2017-05-04T02:48:29.827Z,0
2017-05-04T02:49:10.271Z,0
2017-05-04T02:49:50.730Z,0
2017-05-04T02:50:31.191Z,0
2017-05-04T02:51:11.656Z,0
2017-05-04T02:51:52.124Z,0
2017-05-04T02:52:32.588Z,0
2017-05-04T02:55:05.614Z,0
2017-05-04T02:55:46.112Z,0
2017-05-04T02:56:26.577Z,0
2017-05-04T02:57:07.047Z,0
2017-05-04T02:57:47.550Z,0
2017-05-04T02:58:28.040Z,0
2017-05-04T03:00:45.851Z,0
2017-05-04T03:01:26.365Z,0
2017-05-04T03:02:06.841Z,0
2017-05-04T03:02:47.340Z,0
2017-05-04T03:03:27.844Z,0
2017-05-04T03:04:08.318Z,0
2017-05-04T03:04:48.770Z,0
2017-05-04T03:05:29.330Z,0
2017-05-04T03:06:09.805Z,0
2017-05-04T03:06:50.362Z,0
2017-05-04T03:07:30.972Z,0
2017-05-04T03:08:11.473Z,0
2017-05-04T03:08:51.940Z,0
2017-05-04T03:09:32.423Z,0
2017-05-04T03:10:12.857Z,0
2017-05-04T03:10:53.314Z,0
2017-05-04T03:11:33.811Z,0
2017-05-04T03:12:14.278Z,0
2017-05-04T03:12:54.740Z,0
2017-05-04T03:13:35.194Z,0
2017-05-04T03:14:15.669Z,0
2017-05-04T03:14:56.102Z,0
2017-05-04T03:15:36.545Z,0
2017-05-04T03:16:16.976Z,0
2017-05-04T03:16:57.439Z,0
2017-05-04T03:17:37.885Z,0
2017-05-04T03:18:18.295Z,0
2017-05-04T03:18:58.738Z,0
2017-05-04T03:19:39.193Z,0
2017-05-04T03:20:19.652Z,0
2017-05-04T03:21:00.087Z,0
2017-05-04T03:21:40.543Z,0
2017-05-04T03:22:21.008Z,0
2017-05-04T03:23:01.484Z,0
2017-05-04T03:23:41.937Z,0
2017-05-04T03:24:22.420Z,0
2017-05-04T03:25:02.878Z,0
2017-05-04T03:25:43.373Z,0
2017-05-04T03:26:23.822Z,0
2017-05-04T03:27:04.257Z,0
2017-05-04T03:27:44.690Z,0
2017-05-04T03:28:25.153Z,0
2017-05-04T03:29:05.669Z,0
2017-05-04T03:29:46.084Z,0
2017-05-04T03:30:26.586Z,0
2017-05-04T03:32:44.402Z,0
2017-05-04T03:33:24.865Z,0
2017-05-04T03:34:05.329Z,0
2017-05-04T03:34:45.822Z,0
2017-05-04T03:35:26.383Z,0
2017-05-04T03:36:06.852Z,0
2017-05-04T03:36:47.298Z,0
2017-05-04T03:37:27.822Z,0
2017-05-04T03:38:08.274Z,0
2017-05-04T03:38:48.767Z,0
2017-05-04T03:39:29.255Z,0
2017-05-04T03:40:09.741Z,0
2017-05-04T03:40:50.206Z,0
2017-05-04T03:41:30.716Z,0
2017-05-04T03:42:11.184Z,0
2017-05-04T03:42:51.727Z,0
2017-05-04T03:43:32.859Z,0
2017-05-04T03:44:13.310Z,0
2017-05-04T03:44:53.763Z,0
2017-05-04T03:45:34.267Z,0
2017-05-04T03:46:14.685Z,0
2017-05-04T03:46:55.156Z,0
2017-05-04T03:47:35.610Z,0
2017-05-04T03:48:16.067Z,0
2017-05-04T03:48:56.528Z,0
2017-05-04T03:49:36.990Z,0
2017-05-04T03:50:17.451Z,0
2017-05-04T03:50:57.902Z,0
2017-05-04T03:51:38.359Z,0
2017-05-04T03:52:18.827Z,0
2017-05-04T03:52:59.316Z,0
2017-05-04T03:53:39.746Z,0
2017-05-04T03:54:20.202Z,0
2017-05-04T03:55:01.469Z,0
2017-05-04T03:55:41.922Z,0
2017-05-04T03:56:22.384Z,0
2017-05-04T03:57:02.839Z,0
2017-05-04T03:57:43.288Z,0
2017-05-04T03:58:23.759Z,5
2017-05-04T03:59:04.215Z,5
2017-05-04T03:59:44.729Z,5
2017-05-04T04:00:25.184Z,5
2017-05-04T04:01:05.652Z,5
2017-05-04T04:01:46.123Z,5
2017-05-04T04:02:26.587Z,5
2017-05-04T04:03:07.068Z,5
2017-05-04T04:03:47.714Z,5
2017-05-04T04:04:28.365Z,5
2017-05-04T04:05:08.853Z,10
2017-05-04T04:05:49.310Z,10
2017-05-04T04:06:29.796Z,10
2017-05-04T04:07:10.222Z,10
2017-05-04T04:07:50.953Z,10
2017-05-04T04:08:31.414Z,10
2017-05-04T04:09:11.862Z,10
2017-05-04T04:09:52.323Z,10
2017-05-04T04:10:32.782Z,15
2017-05-04T04:11:13.252Z,15
2017-05-04T04:11:53.690Z,15
2017-05-04T04:12:34.165Z,15
2017-05-04T04:13:14.612Z,15
2017-05-04T04:13:55.063Z,15
2017-05-04T04:14:35.597Z,15
2017-05-04T04:15:16.022Z,15
2017-05-04T04:15:56.487Z,15
2017-05-04T04:16:36.985Z,15
2017-05-04T04:17:17.407Z,15
2017-05-04T04:17:57.853Z,20
2017-05-04T04:18:38.325Z,20
2017-05-04T04:19:18.779Z,20
2017-05-04T04:19:59.228Z,20
2017-05-04T04:20:39.678Z,20
2017-05-04T04:21:20.101Z,20
2017-05-04T04:22:00.595Z,20
2017-05-04T04:22:40.959Z,25
2017-05-04T04:23:21.444Z,25
2017-05-04T04:24:01.889Z,25
2017-05-04T04:24:42.336Z,25
2017-05-04T04:25:22.798Z,25
2017-05-04T04:26:03.291Z,25
2017-05-04T04:26:43.712Z,25
2017-05-04T04:27:24.137Z,25
2017-05-04T04:28:04.590Z,30
2017-05-04T04:28:45.067Z,30
2017-05-04T04:29:25.488Z,30
2017-05-04T04:30:06.036Z,30
2017-05-04T04:30:46.459Z,30
2017-05-04T04:31:27.008Z,30
2017-05-04T04:32:07.444Z,35
2017-05-04T04:32:47.879Z,35
2017-05-04T04:33:28.349Z,40
2017-05-04T04:34:08.811Z,40
2017-05-04T04:34:49.277Z,45
2017-05-04T04:35:29.716Z,45
2017-05-04T04:36:11.125Z,45
2017-05-04T04:36:51.571Z,50
2017-05-04T04:37:32.056Z,50
2017-05-04T04:38:12.526Z,50
2017-05-04T04:38:52.977Z,50
2017-05-04T04:39:33.450Z,55
2017-05-04T04:40:13.938Z,55
2017-05-04T04:40:54.369Z,60
2017-05-04T04:41:34.818Z,60
2017-05-04T04:42:15.254Z,60
2017-05-04T04:42:55.707Z,65
2017-05-04T04:43:36.138Z,65
2017-05-04T04:44:16.604Z,70
2017-05-04T04:44:57.069Z,70
2017-05-04T04:45:37.516Z,70
2017-05-04T04:46:17.978Z,75
2017-05-04T04:46:58.462Z,80
2017-05-04T04:47:38.976Z,80
2017-05-04T04:48:19.442Z,85
2017-05-04T04:48:59.911Z,85
2017-05-04T04:49:40.317Z,90
2017-05-04T04:50:21.317Z,90
2017-05-04T04:51:01.789Z,95
2017-05-04T04:51:42.185Z,95
2017-05-04T04:52:22.655Z,95
2017-05-04T04:53:03.118Z,95
2017-05-04T04:53:43.577Z,95
2017-05-04T04:54:24.040Z,95
2017-05-04T04:55:04.502Z,95
2017-05-04T04:55:44.945Z,95
2017-05-04T04:56:25.699Z,100
2017-05-04T04:57:06.175Z,100
2017-05-04T04:57:46.654Z,95
2017-05-04T04:58:27.157Z,95
2017-05-04T04:59:07.608Z,95
2017-05-04T05:01:26.394Z,95
2017-05-04T05:02:06.889Z,95
2017-05-04T05:02:47.378Z,95
2017-05-04T05:03:27.837Z,100
2017-05-04T05:04:08.302Z,100
2017-05-04T05:04:48.755Z,100
2017-05-04T05:05:29.232Z,100
2017-05-04T05:06:09.740Z,100
2017-05-04T05:06:50.232Z,105
2017-05-04T05:07:30.794Z,105
2017-05-04T05:08:11.262Z,110
2017-05-04T05:08:51.769Z,110
2017-05-04T05:09:33.109Z,115
2017-05-04T05:10:13.560Z,115
2017-05-04T05:12:26.319Z,125
2017-05-04T05:13:06.805Z,130
2017-05-04T05:13:47.333Z,135
2017-05-04T05:14:28.602Z,140
2017-05-04T05:16:41.318Z,145
2017-05-04T05:17:21.796Z,145
2017-05-04T05:18:02.317Z,145
2017-05-04T05:18:42.807Z,145
2017-05-04T05:19:23.269Z,145
2017-05-04T05:20:03.781Z,145
2017-05-04T05:20:44.247Z,145
2017-05-04T05:21:24.743Z,145
2017-05-04T05:22:05.197Z,145
2017-05-04T05:24:33.207Z,145
2017-05-04T05:25:13.766Z,150
2017-05-04T05:25:54.230Z,155
2017-05-04T05:26:34.715Z,155
2017-05-04T05:27:15.208Z,160
2017-05-04T05:27:55.689Z,160
2017-05-04T05:28:36.155Z,160
2017-05-04T05:29:16.609Z,160
2017-05-04T05:29:57.092Z,155
2017-05-04T05:30:37.593Z,155
2017-05-04T05:31:18.058Z,150
2017-05-04T05:31:58.549Z,150
2017-05-04T05:32:38.996Z,150
2017-05-04T05:33:19.487Z,150
2017-05-04T05:33:59.912Z,155
2017-05-04T05:38:25.417Z,165
2017-05-04T05:39:05.883Z,170
2017-05-04T05:39:46.355Z,165
2017-05-04T05:40:26.903Z,165
2017-05-04T05:41:07.394Z,165
2017-05-04T05:41:47.905Z,170
2017-05-04T05:42:28.368Z,170
2017-05-04T05:43:08.799Z,170
2017-05-04T05:43:49.271Z,165
2017-05-04T05:44:29.753Z,165
2017-05-04T05:45:10.195Z,165
2017-05-04T05:45:50.643Z,165
2017-05-04T05:46:31.127Z,160
2017-05-04T05:47:11.557Z,155
2017-05-04T05:47:52.019Z,150
2017-05-04T05:48:32.495Z,155
2017-05-04T05:49:13.121Z,155
2017-05-04T05:49:53.632Z,155
2017-05-04T05:50:34.978Z,155
2017-05-04T05:51:15.438Z,155
2017-05-04T05:51:55.865Z,160
2017-05-04T05:52:36.309Z,165
2017-05-04T05:53:16.807Z,170
2017-05-04T05:53:57.294Z,175
2017-05-04T05:54:37.742Z,180
2017-05-04T05:55:18.255Z,175
2017-05-04T05:55:58.718Z,170
2017-05-04T05:56:39.172Z,170
2017-05-04T05:57:19.652Z,160
2017-05-04T05:58:00.301Z,160
2017-05-04T05:58:40.767Z,165
2017-05-04T05:59:21.232Z,170
2017-05-04T06:00:01.672Z,165
2017-05-04T06:00:42.118Z,165
2017-05-04T06:01:22.549Z,170
2017-05-04T06:02:03.005Z,170
2017-05-04T06:02:43.480Z,160
2017-05-04T06:04:56.223Z,150
2017-05-04T06:05:36.649Z,145
2017-05-04T06:06:17.148Z,145
2017-05-04T06:06:57.582Z,145
2017-05-04T06:07:38.033Z,140
2017-05-04T06:08:18.482Z,140
2017-05-04T06:08:58.945Z,135
2017-05-04T06:09:39.388Z,135
2017-05-04T06:11:57.226Z,130
2017-05-04T06:12:37.688Z,140
2017-05-04T06:13:18.162Z,135
2017-05-04T06:13:59.293Z,135
2017-05-04T06:14:39.940Z,140
2017-05-04T06:15:20.417Z,145
2017-05-04T06:16:00.896Z,145
2017-05-04T06:16:41.357Z,155
2017-05-04T06:19:19.429Z,205
2017-05-04T06:19:59.918Z,210
2017-05-04T06:20:40.383Z,215
2017-05-04T06:21:20.942Z,215
2017-05-04T06:22:01.441Z,210
2017-05-04T06:22:41.911Z,205
2017-05-04T06:23:22.408Z,195
2017-05-04T06:24:02.903Z,185
2017-05-04T06:24:43.326Z,185
2017-05-04T06:25:23.773Z,180
2017-05-04T06:26:04.221Z,180
2017-05-04T06:26:44.660Z,185
2017-05-04T06:27:25.093Z,185
2017-05-04T06:28:05.556Z,185
2017-05-04T06:28:46.034Z,185
2017-05-04T06:29:26.486Z,185
2017-05-04T06:30:07.130Z,180
2017-05-04T06:30:48.278Z,185
2017-05-04T06:31:29.546Z,185
2017-05-04T06:32:10.630Z,190
2017-05-04T06:32:51.346Z,190
2017-05-04T06:33:31.955Z,190
2017-05-04T06:34:12.772Z,190
2017-05-04T06:34:53.902Z,180
2017-05-04T06:35:34.552Z,175
2017-05-04T06:36:15.377Z,170
2017-05-04T06:36:57.008Z,165
2017-05-04T06:37:37.724Z,165
2017-05-04T06:38:18.184Z,165
2017-05-04T06:38:58.599Z,170
2017-05-04T06:39:39.038Z,170
2017-05-04T06:40:19.478Z,170
2017-05-04T06:40:59.942Z,170
2017-05-04T06:41:40.672Z,170
2017-05-04T06:42:21.116Z,175
2017-05-04T06:43:01.593Z,180
2017-05-04T06:43:42.040Z,185
2017-05-04T06:44:22.524Z,205
2017-05-04T06:45:03.060Z,220
2017-05-04T06:45:43.516Z,230
2017-05-04T06:46:23.953Z,235
2017-05-04T06:47:04.447Z,235
2017-05-04T06:47:44.888Z,230
2017-05-04T06:48:25.482Z,220
2017-05-04T06:49:05.935Z,230
2017-05-04T06:49:46.324Z,240
2017-05-04T06:50:26.793Z,250
2017-05-04T06:52:44.681Z,250
2017-05-04T06:53:25.272Z,235
2017-05-04T06:54:05.803Z,220
2017-05-04T06:54:46.386Z,210
2017-05-04T06:55:26.841Z,210
2017-05-04T06:56:07.461Z,220
2017-05-04T06:56:47.956Z,230
2017-05-04T06:57:28.420Z,240
2017-05-04T06:58:08.877Z,245
2017-05-04T06:58:49.338Z,235
2017-05-04T06:59:29.769Z,230
2017-05-04T07:00:10.194Z,230
2017-05-04T07:00:50.644Z,235
2017-05-04T07:01:31.066Z,240
2017-05-04T07:02:11.492Z,230
2017-05-04T07:02:51.926Z,220
2017-05-04T07:05:19.890Z,220
2017-05-04T07:06:00.359Z,210
2017-05-04T07:06:40.849Z,195
2017-05-04T07:07:22.368Z,185
2017-05-04T07:09:40.275Z,190
2017-05-04T07:10:20.651Z,210
2017-05-04T07:11:01.107Z,235
2017-05-04T07:13:13.837Z,245
2017-05-04T07:13:54.260Z,255
2017-05-04T07:14:34.767Z,250
2017-05-04T07:15:15.329Z,230
2017-05-04T07:15:55.873Z,215
2017-05-04T07:16:36.292Z,200
2017-05-04T07:17:16.744Z,195
2017-05-04T07:17:57.164Z,185
2017-05-04T07:18:37.577Z,180
2017-05-04T07:19:18.078Z,180
2017-05-04T07:19:58.469Z,175
2017-05-04T07:20:38.952Z,170
2017-05-04T07:21:20.266Z,170
2017-05-04T07:22:00.819Z,170
2017-05-04T07:26:11.758Z,155
2017-05-04T07:26:52.191Z,165
2017-05-04T07:27:32.673Z,180
2017-05-04T07:28:13.087Z,190
2017-05-04T07:28:53.615Z,195
2017-05-04T07:29:34.047Z,205
2017-05-04T07:31:47.121Z,255
2017-05-04T07:32:27.524Z,240
2017-05-04T07:33:08.002Z,255
2017-05-04T07:33:48.602Z,285
2017-05-04T07:34:29.035Z,295
2017-05-04T07:35:09.514Z,300
2017-05-04T07:35:49.964Z,290
2017-05-04T07:36:30.419Z,285
2017-05-04T07:37:11.019Z,280
2017-05-04T07:37:51.649Z,260
2017-05-04T07:38:33.079Z,250
2017-05-04T07:39:15.716Z,245
2017-05-04T07:39:56.297Z,240
2017-05-04T07:40:36.896Z,245
2017-05-04T07:41:19.448Z,245
2017-05-04T07:42:02.881Z,245
2017-05-04T07:42:43.552Z,255
2017-05-04T07:43:24.040Z,260
2017-05-04T07:44:04.584Z,265
2017-05-04T07:44:45.291Z,270
2017-05-04T07:45:26.004Z,275
2017-05-04T07:46:06.461Z,280
2017-05-04T07:46:47.046Z,285
2017-05-04T07:47:27.542Z,295
2017-05-04T07:48:07.974Z,290
2017-05-04T07:48:48.509Z,285
2017-05-04T07:49:28.858Z,285
2017-05-04T07:50:09.361Z,285
2017-05-04T07:50:49.853Z,290
2017-05-04T07:51:30.230Z,290
2017-05-04T07:52:10.724Z,290
2017-05-04T07:54:24.504Z,300
2017-05-04T07:55:05.003Z,305
2017-05-04T07:55:45.498Z,300
2017-05-04T07:57:58.480Z,265
2017-05-04T07:58:39.336Z,260
2017-05-04T07:59:19.941Z,255
2017-05-04T08:00:00.504Z,255
2017-05-04T08:00:41.391Z,250
2017-05-04T08:01:21.903Z,250
2017-05-04T08:02:02.428Z,240
2017-05-04T08:02:43.072Z,230
2017-05-04T08:03:23.960Z,225
2017-05-04T08:04:05.213Z,230
2017-05-04T08:04:46.031Z,225
2017-05-04T08:05:26.667Z,220
2017-05-04T08:06:07.129Z,220
2017-05-04T08:06:47.640Z,220
2017-05-04T08:07:28.419Z,225
2017-05-04T08:08:09.132Z,230
2017-05-04T08:08:49.570Z,225
2017-05-04T08:09:30.094Z,220
2017-05-04T08:10:10.600Z,215
2017-05-04T08:12:28.466Z,200
2017-05-04T08:13:09.005Z,195
2017-05-04T08:13:49.547Z,195
2017-05-04T08:14:30.073Z,195
2017-05-04T08:15:11.184Z,200
2017-05-04T08:15:51.622Z,200
2017-05-04T08:16:32.434Z,205
2017-05-04T08:17:12.863Z,210
2017-05-04T08:17:53.464Z,210
2017-05-04T08:18:34.026Z,215
2017-05-04T08:19:14.543Z,220
2017-05-04T08:21:32.430Z,215
2017-05-04T08:22:12.896Z,210
2017-05-04T08:22:53.367Z,215
2017-05-04T08:23:33.814Z,220
2017-05-04T08:24:14.269Z,220
2017-05-04T08:24:54.702Z,230
2017-05-04T08:25:35.325Z,235
2017-05-04T08:26:15.776Z,245
2017-05-04T08:26:56.248Z,240
2017-05-04T08:27:36.976Z,235
2017-05-04T08:28:17.767Z,240
2017-05-04T08:28:58.335Z,245
2017-05-04T08:29:38.822Z,255
2017-05-04T08:30:19.272Z,265
2017-05-04T08:30:59.801Z,295
2017-05-04T08:31:40.400Z,320
2017-05-04T08:32:21.109Z,335
2017-05-04T08:33:01.518Z,340
2017-05-04T08:33:42.088Z,345
2017-05-04T08:34:22.509Z,350
2017-05-04T08:35:03.047Z,355
2017-05-04T08:35:43.581Z,365
2017-05-04T08:36:24.255Z,370
2017-05-04T08:37:04.730Z,375
2017-05-04T08:37:45.299Z,375
2017-05-04T08:38:26.451Z,375
2017-05-04T08:39:07.080Z,375
2017-05-04T08:39:47.837Z,370
2017-05-04T08:40:28.653Z,365
2017-05-04T08:41:09.218Z,350
2017-05-04T08:41:49.853Z,345
2017-05-04T08:42:30.949Z,340
2017-05-04T08:43:11.631Z,340
2017-05-04T08:43:52.289Z,340
2017-05-04T08:44:32.855Z,340
2017-05-04T08:45:13.601Z,340
2017-05-04T08:45:54.239Z,340
2017-05-04T08:46:34.758Z,325
2017-05-04T08:47:15.500Z,320
2017-05-04T08:47:56.133Z,310
2017-05-04T08:48:36.916Z,300
2017-05-04T08:49:17.444Z,295
2017-05-04T08:49:58.032Z,290
2017-05-04T08:50:38.666Z,290
2017-05-04T08:51:19.249Z,295
2017-05-04T08:51:59.806Z,295
2017-05-04T08:54:17.815Z,295
2017-05-04T08:54:58.366Z,285
2017-05-04T08:55:39.195Z,285
2017-05-04T08:56:20.004Z,275
2017-05-04T08:57:00.783Z,270
2017-05-04T08:57:41.309Z,265
2017-05-04T08:58:22.063Z,265
2017-05-04T08:59:02.638Z,270
2017-05-04T08:59:43.252Z,275
2017-05-04T09:00:23.846Z,285
2017-05-04T09:01:04.427Z,305
2017-05-04T09:01:45.203Z,320
2017-05-04T09:02:25.753Z,340
2017-05-04T09:03:06.230Z,350
2017-05-04T09:03:46.854Z,360
2017-05-04T09:04:27.477Z,370
2017-05-04T09:05:08.006Z,370
2017-05-04T09:05:48.440Z,375
2017-05-04T09:06:28.936Z,390
2017-05-04T09:07:09.438Z,405
2017-05-04T09:07:50.033Z,425
2017-05-04T09:08:30.523Z,445
2017-05-04T09:09:12.550Z,460
2017-05-04T09:09:52.686Z,475
2017-05-04T09:10:33.414Z,485
2017-05-04T09:11:14.143Z,510
2017-05-04T09:11:54.726Z,520
2017-05-04T09:12:35.253Z,515
2017-05-04T09:13:15.687Z,505
2017-05-04T09:14:02.490Z,505
2017-05-04T09:14:43.140Z,515
2017-05-04T09:15:23.665Z,530
2017-05-04T09:16:04.116Z,535
2017-05-04T09:16:44.648Z,535
2017-05-04T09:17:26.564Z,535
2017-05-04T09:18:07.083Z,525
2017-05-04T09:18:47.996Z,515
2017-05-04T09:21:15.968Z,515
2017-05-04T09:21:56.462Z,510
2017-05-04T09:22:36.965Z,505
2017-05-04T09:23:17.591Z,490
2017-05-04T09:23:58.211Z,485
2017-05-04T09:24:39.036Z,485
2017-05-04T09:25:19.508Z,475
2017-05-04T09:26:00.206Z,465
2017-05-04T09:26:40.726Z,455
2017-05-04T09:27:21.284Z,445
2017-05-04T09:28:01.759Z,435
2017-05-04T09:28:42.308Z,425
2017-05-04T09:29:22.861Z,415
2017-05-04T09:30:03.333Z,410
2017-05-04T09:30:43.786Z,400
2017-05-04T09:31:24.496Z,385
2017-05-04T09:32:05.048Z,370
2017-05-04T09:32:45.648Z,355
2017-05-04T09:33:26.230Z,350
2017-05-04T09:34:06.755Z,355
2017-05-04T09:34:47.405Z,375
2017-05-04T09:35:28.113Z,400
2017-05-04T09:36:08.630Z,425
2017-05-04T09:36:49.177Z,450
2017-05-04T09:37:30.023Z,470
2017-05-04T09:38:10.792Z,480
2017-05-04T09:38:51.480Z,475
2017-05-04T09:41:19.784Z,470
2017-05-04T09:42:00.450Z,460
2017-05-04T09:42:40.945Z,440
2017-05-04T09:43:21.509Z,425
2017-05-04T09:44:02.075Z,410
2017-05-04T09:44:42.708Z,410
2017-05-04T09:45:23.316Z,410
2017-05-04T09:46:03.821Z,420
2017-05-04T09:46:44.415Z,430
2017-05-04T09:47:24.976Z,435
2017-05-04T09:48:05.527Z,435
2017-05-04T09:48:46.036Z,435
2017-05-04T09:49:26.651Z,425
2017-05-04T09:50:07.187Z,425
2017-05-04T09:50:47.729Z,415
2017-05-04T09:51:28.365Z,410
2017-05-04T09:54:01.545Z,415
2017-05-04T09:54:42.001Z,420
2017-05-04T09:55:22.591Z,415
2017-05-04T09:56:03.119Z,415
2017-05-04T09:56:43.621Z,415
2017-05-04T09:57:24.084Z,405
2017-05-04T09:58:04.706Z,405
2017-05-04T09:58:45.205Z,400
2017-05-04T09:59:25.654Z,395
2017-05-04T10:00:06.164Z,385
2017-05-04T10:00:46.802Z,375
2017-05-04T10:01:27.142Z,355
2017-05-04T10:02:07.800Z,340
2017-05-04T10:04:35.743Z,305
2017-05-04T10:05:16.321Z,305
2017-05-04T10:05:56.823Z,310
2017-05-04T10:06:37.319Z,305
2017-05-04T10:07:17.848Z,305
2017-05-04T10:07:58.390Z,310
2017-05-04T10:08:38.884Z,320
2017-05-04T10:09:19.283Z,325
2017-05-04T10:09:59.879Z,330
2017-05-04T10:10:40.371Z,340
2017-05-04T10:11:20.796Z,345
2017-05-04T10:12:01.329Z,350
2017-05-04T10:12:41.813Z,355
2017-05-04T10:13:22.279Z,355
2017-05-04T10:14:03.242Z,355
2017-05-04T10:14:43.837Z,355
2017-05-04T10:15:24.444Z,355
2017-05-04T10:16:04.981Z,355
2017-05-04T10:16:45.434Z,355
2017-05-04T10:17:25.914Z,350
2017-05-04T10:18:06.492Z,345
2017-05-04T10:20:19.240Z,315
2017-05-04T10:20:59.753Z,300
2017-05-04T10:21:40.210Z,295
2017-05-04T10:22:20.779Z,285
2017-05-04T10:23:01.165Z,280
2017-05-04T10:23:41.697Z,290
2017-05-04T10:24:22.188Z,295
2017-05-04T10:25:03.455Z,295
2017-05-04T10:25:43.934Z,300
2017-05-04T10:26:24.442Z,300
2017-05-04T10:28:37.187Z,295
2017-05-04T10:29:17.680Z,295
2017-05-04T10:31:50.974Z,295
2017-05-04T10:32:31.378Z,295
2017-05-04T10:33:11.894Z,290
2017-05-04T10:35:50.390Z,260
2017-05-04T10:36:30.848Z,250
2017-05-04T10:37:11.396Z,245
2017-05-04T10:37:52.065Z,245
2017-05-04T10:38:32.685Z,250
2017-05-04T10:39:13.344Z,250
2017-05-04T10:39:53.907Z,250
2017-05-04T10:40:34.399Z,250
2017-05-04T10:41:14.891Z,250
2017-05-04T10:41:55.401Z,255
2017-05-04T10:42:35.854Z,260
2017-05-04T10:43:16.350Z,270
2017-05-04T10:43:56.788Z,275
2017-05-04T10:44:37.278Z,280
2017-05-04T10:45:17.766Z,290
2017-05-04T10:45:58.243Z,300
2017-05-04T10:46:38.733Z,305
2017-05-04T10:49:06.804Z,330
2017-05-04T10:49:47.345Z,335